Flight Track Log - Related Links

Times and Time Zones

All times are in EDT time to prevent confusion due to time zone crossing. See the EJA122 flight status page for this flight to view local times or setup timezone preferences in your user account.

Time Position Orientation Groundspeed Altitude Reporting Facility
EDT Latitude Longitude Course Direction KTS MPH feet Rate Location/Type
Wed 01:07:24 PM 35.8331 -84.1617 277° West 273 314 7,400  Level Atlanta Center
Wed 01:08:24 PM 35.8956 -84.2311 318° Northwest 286 329 9,300 2,750 Climbing Atlanta Center
Wed 01:09:24 PM 35.9350 -84.3003 305° West 283 326 12,900 3,050 Climbing Atlanta Center
Wed 01:10:24 PM 35.9453 -84.3875 278° West 250 288 15,400 2,650 Climbing Atlanta Center
Wed 01:11:24 PM 35.9492 -84.4775 273° West 258 297 18,200 2,250 Climbing Atlanta Center
Wed 01:12:00 PM 35.9670 -84.5854 277° West  Level FlightAware Approximate
Wed 01:12:24 PM 35.9383 -84.5672 262° West 258 297 19,900  Level Atlanta Center
Wed 01:13:24 PM 35.9378 -84.6594 270° West 268 308 21,500 1,350 Climbing Atlanta Center
Wed 01:14:24 PM 35.9456 -84.7569 276° West 273 314 22,600 1,050 Climbing Atlanta Center
Wed 01:15:24 PM 35.9553 -84.8647 276° West 296 341 23,600 918 Climbing Atlanta Center
Wed 01:17:14 PM 35.9606 -85.0769 272° West 352 405 25,200 847 Climbing Memphis Center
Wed 01:18:14 PM 35.9658 -85.2022 273° West 367 422 26,000 800 Climbing Memphis Center
Wed 01:19:14 PM 35.9733 -85.3350 274° West 378 435 26,800 800 Climbing Memphis Center
Wed 01:20:14 PM 35.9789 -85.4681 273° West 389 448 27,600 833 Climbing Memphis Center
Wed 01:22:14 PM 35.9914 -85.7419 273° West 401 461 29,300 833 Climbing Memphis Center
Wed 01:23:14 PM 35.9989 -85.8928 274° West 401 461 30,100 800 Climbing Memphis Center
Wed 01:24:14 PM 36.0039 -86.0311 273° West 401 461 30,900 800 Climbing Memphis Center
Wed 01:25:14 PM 36.0108 -86.1719 274° West 406 467 31,700 550 Climbing Memphis Center
Wed 01:26:14 PM 36.0156 -86.3128 272° West 406 467 32,000 150 Climbing Memphis Center
Wed 01:27:14 PM 36.0200 -86.4589 272° West 418 481 32,000  Level Memphis Center
Wed 01:28:14 PM 36.0247 -86.6100 272° West 432 497 32,000  Level Memphis Center
Wed 01:29:14 PM 36.0308 -86.7458 273° West 443 510 32,000  Level Memphis Center
Wed 01:30:14 PM 36.0353 -86.9022 272° West 450 518 32,000  Level Memphis Center
Wed 01:31:14 PM 36.0417 -87.0583 273° West 459 528 32,000  Level Memphis Center
Wed 01:32:14 PM 36.0478 -87.2147 273° West 459 528 32,000  Level Memphis Center
Wed 01:33:14 PM 36.0542 -87.3867 273° West 459 528 32,000  Level Memphis Center
Wed 01:34:14 PM 36.0597 -87.5403 273° West 459 528 32,000 200 Level Memphis Center
Wed 01:35:14 PM 36.0633 -87.6944 272° West 459 528 32,400 600 Climbing Memphis Center
Wed 01:36:14 PM 36.0683 -87.8431 272° West 446 513 33,200 800 Climbing Memphis Center
Wed 01:37:14 PM 36.0733 -87.9892 272° West 439 505 34,000 400 Climbing Memphis Center
Wed 01:38:14 PM 36.0778 -88.1203 272° West 433 498 34,000  Level Memphis Center
Wed 01:39:14 PM 36.0786 -88.2767 270° West 428 493 34,000  Level Memphis Center
Wed 01:40:14 PM 36.0811 -88.4283 271° West 428 493 34,000  Level Memphis Center
Wed 01:41:14 PM 36.0853 -88.5797 272° West 435 501 34,000  Level Memphis Center
Wed 01:42:14 PM 36.0875 -88.7364 271° West 446 513 34,000  Level Memphis Center
Wed 01:43:14 PM 36.0894 -88.8878 271° West 446 513 34,000  Level Memphis Center
Wed 01:44:14 PM 36.0911 -89.0444 271° West 446 513 34,000  Level Memphis Center
Wed 01:45:14 PM 36.0906 -89.1986 270° West 451 519 34,000  Level Memphis Center
Wed 01:46:14 PM 36.0919 -89.3578 271° West 456 525 34,000  Level Memphis Center
Wed 01:47:14 PM 36.0972 -89.5144 272° West 456 525 34,000  Level Memphis Center
Wed 01:48:14 PM 36.0983 -89.6736 271° West 456 525 34,000  Level Memphis Center
Wed 01:49:14 PM 36.0989 -89.8125 270° West 456 525 34,000  Level Memphis Center
Wed 01:50:14 PM 36.1017 -89.9692 271° West 456 525 34,000  Level Memphis Center
Wed 01:51:14 PM 36.1019 -90.1206 270° West 456 525 34,000  Level Memphis Center
Wed 01:52:14 PM 36.1044 -90.2722 271° West 456 525 34,000  Level Memphis Center
Wed 01:53:14 PM 36.1064 -90.4264 271° West 451 519 34,000  Level Memphis Center
Wed 01:54:14 PM 36.1083 -90.5831 271° West 451 519 34,000  Level Memphis Center
Wed 01:55:14 PM 36.1058 -90.7347 269° West 456 525 34,000  Level Memphis Center
Wed 01:56:14 PM 36.1075 -90.8889 271° West 456 525 34,000  Level Memphis Center
Wed 01:57:14 PM 36.1464 -91.0331 289° West 441 507 34,000  Level Memphis Center
Wed 01:58:14 PM 36.2186 -91.1597 305° West 441 507 34,000  Level Memphis Center
Wed 01:59:14 PM 36.2844 -91.2917 302° West 441 507 34,000  Level Memphis Center
Wed 02:00:14 PM 36.3542 -91.4186 304° West 453 521 34,000  Level Memphis Center
Wed 02:01:14 PM 36.4219 -91.5458 304° West 453 521 34,000  Level Memphis Center
Wed 02:02:14 PM 36.4814 -91.6475 306° West 453 521 34,000  Level Memphis Center
Wed 02:03:14 PM 36.5611 -91.7986 303° West 447 514 34,000  Level Memphis Center
Wed 02:04:14 PM 36.6283 -91.9264 303° West 447 514 34,000  Level Memphis Center
Wed 02:05:06 PM 36.6856 -92.0300 305° West 443 510 34,000  Level Kansas City Center
Wed 02:06:08 PM 36.7525 -92.1586 303° West 442 509 34,000  Level Kansas City Center
Wed 02:07:10 PM 36.8194 -92.2853 303° West 440 506 34,000  Level Kansas City Center
Wed 02:08:12 PM 36.8972 -92.4381 303° West 436 502 34,000  Level Kansas City Center
Wed 02:09:14 PM 36.9633 -92.5647 303° West 434 499 34,000  Level Kansas City Center
Wed 02:10:16 PM 37.0292 -92.6919 303° West 434 499 34,000  Level Kansas City Center
Wed 02:11:18 PM 37.0964 -92.8228 303° West 439 505 34,000 -387 Level Kansas City Center
Wed 02:12:20 PM 37.1778 -92.9411 311° West 449 517 33,200 -968 Descending Kansas City Center
Wed 02:13:22 PM 37.2819 -93.0219 328° Northwest 441 507 32,000 -581 Descending Kansas City Center
Wed 02:14:24 PM 37.3847 -93.0975 330° Northwest 430 495 32,000  Level Kansas City Center
Wed 02:15:26 PM 37.5117 -93.1906 330° Northwest 433 498 32,000  Level Kansas City Center
Wed 02:16:28 PM 37.6231 -93.2739 329° Northwest 450 518 32,000  Level Kansas City Center
Wed 02:17:30 PM 37.7322 -93.3564 329° Northwest 454 522 32,000 -532 Level Kansas City Center
Wed 02:18:32 PM 37.8236 -93.4561 319° Northwest 437 503 30,900 -1,306 Descending Kansas City Center
Wed 02:19:34 PM 37.9039 -93.5694 312° West 432 497 29,300 -1,597 Descending Kansas City Center
Wed 02:20:36 PM 37.9853 -93.6819 313° West 431 496 27,600 -1,790 Descending Kansas City Center
Wed 02:21:38 PM 38.0661 -93.7936 313° West 429 494 25,600 -2,371 Descending Kansas City Center
Wed 02:22:40 PM 38.1444 -93.9047 312° West 423 487 22,700 -3,097 Descending Kansas City Center
Wed 02:23:42 PM 38.2369 -94.0319 313° West 409 471 19,200 -3,000 Descending Kansas City Center
Wed 02:24:44 PM 38.3061 -94.1319 311° West 396 456 16,500 -2,516 Descending Kansas City Center
Wed 02:25:46 PM 38.3714 -94.2253 312° West 379 436 14,000 -2,516 Descending Kansas City Center
Wed 02:26:48 PM 38.4414 -94.3239 312° West 337 388 11,300 -2,323 Descending Kansas City Center
Wed 02:27:50 PM 38.4953 -94.4022 311° West 310 357 9,200 -2,032 Descending Kansas City Center
Wed 02:28:52 PM 38.5503 -94.4817 312° West 269 310 7,100 -1,548 Descending Kansas City Center
Wed 02:29:54 PM 38.5978 -94.5500 312° West 269 310 6,000 -532 Descending Kansas City Center
Wed 02:30:56 PM 38.6508 -94.6289 311° West 261 300 6,000 -532 Level Kansas City Center
Wed 02:31:58 PM 38.6958 -94.6917 313° West 252 290 4,900 -1,355 Descending Kansas City Center
Wed 02:33:00 PM 38.7425 -94.7606 311° West 231 266 3,200 -1,016 Descending Kansas City Center
Wed 02:34:02 PM 38.7667 -94.8208 297° West 201 231 2,800 -629 Descending Kansas City Center
Wed 02:35:04 PM 38.7819 -94.8825 288° West 167 192 1,900 -768 Descending Kansas City Center
Wed 02:36:07 PM 38.8139 -94.8922 347° North 133 153 1,200 -667 Descending Kansas City Center

Login

Don't have an account? Register now (free) for customized features, flight alerts, and more!